sensor_id;sensor_type;location;lat;lon;timestamp;temperature;humidity
13835;DHT22;6988;52.614;13.500;2023-07-31T00:00:38;15.30;99.90
13835;DHT22;6988;52.614;13.500;2023-07-31T00:05:30;15.20;99.90
13835;DHT22;6988;52.614;13.500;2023-07-31T00:10:21;15.20;99.90
13835;DHT22;6988;52.614;13.500;2023-07-31T00:15:14;15.10;99.90
13835;DHT22;6988;52.614;13.500;2023-07-31T00:20:08;15.10;99.90
13835;DHT22;6988;52.614;13.500;2023-07-31T00:25:00;15.10;99.90
13835;DHT22;6988;52.614;13.500;2023-07-31T00:29:52;15.00;99.90
13835;DHT22;6988;52.614;13.500;2023-07-31T00:34:44;15.00;99.90
13835;DHT22;6988;52.614;13.500;2023-07-31T00:39:37;15.10;99.90
13835;DHT22;6988;52.614;13.500;2023-07-31T00:44:29;15.10;99.90
13835;DHT22;6988;52.614;13.500;2023-07-31T00:49:22;15.00;99.90
13835;DHT22;6988;52.614;13.500;2023-07-31T00:54:14;15.00;99.90
13835;DHT22;6988;52.614;13.500;2023-07-31T00:59:07;15.00;99.90
13835;DHT22;6988;52.614;13.500;2023-07-31T01:03:59;15.00;99.90
13835;DHT22;6988;52.614;13.500;2023-07-31T01:08:57;15.10;99.90
13835;DHT22;6988;52.614;13.500;2023-07-31T01:13:53;15.10;99.90
13835;DHT22;6988;52.614;13.500;2023-07-31T01:18:46;15.10;99.90
13835;DHT22;6988;52.614;13.500;2023-07-31T01:23:57;15.20;99.90
13835;DHT22;6988;52.614;13.500;2023-07-31T01:29:16;15.20;99.90
13835;DHT22;6988;52.614;13.500;2023-07-31T01:34:17;15.30;99.90
13835;DHT22;6988;52.614;13.500;2023-07-31T01:39:10;15.20;99.90
13835;DHT22;6988;52.614;13.500;2023-07-31T01:44:02;15.20;99.90
13835;DHT22;6988;52.614;13.500;2023-07-31T01:48:55;15.20;99.90
13835;DHT22;6988;52.614;13.500;2023-07-31T01:53:48;15.20;99.90
13835;DHT22;6988;52.614;13.500;2023-07-31T01:58:40;15.20;99.90
13835;DHT22;6988;52.614;13.500;2023-07-31T02:03:31;15.20;99.90
13835;DHT22;6988;52.614;13.500;2023-07-31T02:08:25;15.20;99.90
13835;DHT22;6988;52.614;13.500;2023-07-31T02:13:16;15.20;99.90
13835;DHT22;6988;52.614;13.500;2023-07-31T02:18:08;15.40;99.90
13835;DHT22;6988;52.614;13.500;2023-07-31T02:23:00;15.30;99.90
13835;DHT22;6988;52.614;13.500;2023-07-31T02:27:53;15.40;99.90
13835;DHT22;6988;52.614;13.500;2023-07-31T02:32:45;15.40;99.90
13835;DHT22;6988;52.614;13.500;2023-07-31T02:37:36;15.40;99.90
13835;DHT22;6988;52.614;13.500;2023-07-31T02:42:29;15.40;99.90
13835;DHT22;6988;52.614;13.500;2023-07-31T02:47:22;15.50;99.90
13835;DHT22;6988;52.614;13.500;2023-07-31T02:52:14;15.40;99.90
13835;DHT22;6988;52.614;13.500;2023-07-31T02:57:06;15.50;99.90
13835;DHT22;6988;52.614;13.500;2023-07-31T03:01:58;15.40;99.90
13835;DHT22;6988;52.614;13.500;2023-07-31T03:06:51;15.70;99.90
13835;DHT22;6988;52.614;13.500;2023-07-31T03:11:43;15.50;99.90
13835;DHT22;6988;52.614;13.500;2023-07-31T03:16:35;15.50;99.90
13835;DHT22;6988;52.614;13.500;2023-07-31T03:21:27;15.50;99.90
13835;DHT22;6988;52.614;13.500;2023-07-31T03:26:20;15.50;99.90
13835;DHT22;6988;52.614;13.500;2023-07-31T03:31:13;15.50;99.90
13835;DHT22;6988;52.614;13.500;2023-07-31T03:36:04;15.50;99.90
13835;DHT22;6988;52.614;13.500;2023-07-31T03:40:58;15.60;99.90
13835;DHT22;6988;52.614;13.500;2023-07-31T03:45:52;15.60;99.90
13835;DHT22;6988;52.614;13.500;2023-07-31T03:50:43;15.50;99.90
13835;DHT22;6988;52.614;13.500;2023-07-31T03:55:35;15.80;99.90
13835;DHT22;6988;52.614;13.500;2023-07-31T04:00:27;15.60;99.90
13835;DHT22;6988;52.614;13.500;2023-07-31T04:05:20;15.60;99.90
13835;DHT22;6988;52.614;13.500;2023-07-31T04:10:12;15.50;99.90
13835;DHT22;6988;52.614;13.500;2023-07-31T04:15:05;15.60;99.90
13835;DHT22;6988;52.614;13.500;2023-07-31T04:19:57;15.60;99.90
13835;DHT22;6988;52.614;13.500;2023-07-31T04:24:50;15.60;99.90
13835;DHT22;6988;52.614;13.500;2023-07-31T04:29:42;15.60;99.90
13835;DHT22;6988;52.614;13.500;2023-07-31T04:34:36;15.60;99.90
13835;DHT22;6988;52.614;13.500;2023-07-31T04:39:28;15.60;99.90
13835;DHT22;6988;52.614;13.500;2023-07-31T04:44:21;15.60;99.90
13835;DHT22;6988;52.614;13.500;2023-07-31T04:49:12;15.70;99.90
13835;DHT22;6988;52.614;13.500;2023-07-31T04:54:04;15.70;99.90
13835;DHT22;6988;52.614;13.500;2023-07-31T04:58:56;15.70;99.90
13835;DHT22;6988;52.614;13.500;2023-07-31T05:03:49;15.70;99.90
13835;DHT22;6988;52.614;13.500;2023-07-31T05:08:41;15.70;99.90
13835;DHT22;6988;52.614;13.500;2023-07-31T05:13:32;15.70;99.90
13835;DHT22;6988;52.614;13.500;2023-07-31T05:18:24;15.80;99.90
13835;DHT22;6988;52.614;13.500;2023-07-31T05:23:17;15.80;99.90
13835;DHT22;6988;52.614;13.500;2023-07-31T05:28:09;15.90;99.90
13835;DHT22;6988;52.614;13.500;2023-07-31T05:33:01;15.90;99.90
13835;DHT22;6988;52.614;13.500;2023-07-31T05:37:52;16.00;99.90
13835;DHT22;6988;52.614;13.500;2023-07-31T05:42:45;16.00;99.90
13835;DHT22;6988;52.614;13.500;2023-07-31T05:47:37;16.10;99.90
13835;DHT22;6988;52.614;13.500;2023-07-31T05:52:29;16.20;99.90
13835;DHT22;6988;52.614;13.500;2023-07-31T05:57:21;16.30;99.90
13835;DHT22;6988;52.614;13.500;2023-07-31T06:02:14;16.30;99.90
13835;DHT22;6988;52.614;13.500;2023-07-31T06:07:06;16.30;99.90
13835;DHT22;6988;52.614;13.500;2023-07-31T06:11:58;16.30;99.90
13835;DHT22;6988;52.614;13.500;2023-07-31T06:16:50;16.40;99.90
13835;DHT22;6988;52.614;13.500;2023-07-31T06:21:43;16.40;99.90
13835;DHT22;6988;52.614;13.500;2023-07-31T06:26:35;16.40;99.90
13835;DHT22;6988;52.614;13.500;2023-07-31T06:31:27;16.40;99.90
13835;DHT22;6988;52.614;13.500;2023-07-31T06:36:19;16.50;99.90
13835;DHT22;6988;52.614;13.500;2023-07-31T06:41:12;16.40;99.90
13835;DHT22;6988;52.614;13.500;2023-07-31T06:46:05;16.60;99.90
13835;DHT22;6988;52.614;13.500;2023-07-31T06:50:57;16.70;99.90
13835;DHT22;6988;52.614;13.500;2023-07-31T06:55:48;16.70;99.90
13835;DHT22;6988;52.614;13.500;2023-07-31T07:00:43;16.90;99.90
13835;DHT22;6988;52.614;13.500;2023-07-31T07:05:35;16.90;99.90
13835;DHT22;6988;52.614;13.500;2023-07-31T07:10:27;16.80;99.90
13835;DHT22;6988;52.614;13.500;2023-07-31T07:15:19;16.80;99.90
13835;DHT22;6988;52.614;13.500;2023-07-31T07:20:12;16.80;99.90
13835;DHT22;6988;52.614;13.500;2023-07-31T07:25:04;16.80;99.90
13835;DHT22;6988;52.614;13.500;2023-07-31T07:29:57;16.80;99.90
13835;DHT22;6988;52.614;13.500;2023-07-31T07:34:49;16.80;99.90
13835;DHT22;6988;52.614;13.500;2023-07-31T07:39:43;16.80;99.90
13835;DHT22;6988;52.614;13.500;2023-07-31T07:44:35;16.80;99.90
13835;DHT22;6988;52.614;13.500;2023-07-31T07:49:27;16.90;99.90
13835;DHT22;6988;52.614;13.500;2023-07-31T07:54:18;17.00;99.90
13835;DHT22;6988;52.614;13.500;2023-07-31T07:59:12;16.90;99.90
13835;DHT22;6988;52.614;13.500;2023-07-31T08:04:04;17.00;99.90
13835;DHT22;6988;52.614;13.500;2023-07-31T08:08:56;17.10;99.90
13835;DHT22;6988;52.614;13.500;2023-07-31T08:13:47;17.10;99.90
13835;DHT22;6988;52.614;13.500;2023-07-31T08:18:41;17.10;99.90
13835;DHT22;6988;52.614;13.500;2023-07-31T08:23:33;17.10;99.90
13835;DHT22;6988;52.614;13.500;2023-07-31T08:28:25;17.20;99.90
13835;DHT22;6988;52.614;13.500;2023-07-31T08:33:17;17.10;99.90
13835;DHT22;6988;52.614;13.500;2023-07-31T08:38:10;17.00;99.90
13835;DHT22;6988;52.614;13.500;2023-07-31T08:43:01;17.00;99.90
13835;DHT22;6988;52.614;13.500;2023-07-31T08:47:53;16.90;99.90
13835;DHT22;6988;52.614;13.500;2023-07-31T08:52:48;17.00;99.90
13835;DHT22;6988;52.614;13.500;2023-07-31T08:57:43;17.00;99.90
13835;DHT22;6988;52.614;13.500;2023-07-31T09:02:38;17.10;99.90
13835;DHT22;6988;52.614;13.500;2023-07-31T09:07:37;17.10;99.90
13835;DHT22;6988;52.614;13.500;2023-07-31T09:12:29;17.30;99.90
13835;DHT22;6988;52.614;13.500;2023-07-31T09:17:30;17.40;99.90
13835;DHT22;6988;52.614;13.500;2023-07-31T09:22:31;17.50;99.90
13835;DHT22;6988;52.614;13.500;2023-07-31T09:27:24;17.60;99.90
13835;DHT22;6988;52.614;13.500;2023-07-31T09:32:16;17.50;99.90
13835;DHT22;6988;52.614;13.500;2023-07-31T09:37:11;17.70;99.90
13835;DHT22;6988;52.614;13.500;2023-07-31T09:42:03;17.90;99.90
13835;DHT22;6988;52.614;13.500;2023-07-31T09:46:55;17.80;99.90
13835;DHT22;6988;52.614;13.500;2023-07-31T09:51:47;17.70;99.90
13835;DHT22;6988;52.614;13.500;2023-07-31T09:56:44;17.50;99.90
13835;DHT22;6988;52.614;13.500;2023-07-31T10:01:38;17.40;99.90
13835;DHT22;6988;52.614;13.500;2023-07-31T10:06:31;17.50;99.90
13835;DHT22;6988;52.614;13.500;2023-07-31T10:11:27;17.40;99.90
13835;DHT22;6988;52.614;13.500;2023-07-31T10:16:22;17.40;99.90
13835;DHT22;6988;52.614;13.500;2023-07-31T10:21:14;17.70;99.90
13835;DHT22;6988;52.614;13.500;2023-07-31T10:26:07;18.00;99.90
13835;DHT22;6988;52.614;13.500;2023-07-31T10:31:01;17.90;99.90
13835;DHT22;6988;52.614;13.500;2023-07-31T10:36:15;17.90;99.90
13835;DHT22;6988;52.614;13.500;2023-07-31T10:41:09;17.80;99.90
13835;DHT22;6988;52.614;13.500;2023-07-31T10:46:06;17.80;99.90
13835;DHT22;6988;52.614;13.500;2023-07-31T10:50:59;17.80;99.90
13835;DHT22;6988;52.614;13.500;2023-07-31T10:55:53;17.70;99.90
13835;DHT22;6988;52.614;13.500;2023-07-31T11:00:49;17.80;99.90
13835;DHT22;6988;52.614;13.500;2023-07-31T11:05:48;17.90;99.90
13835;DHT22;6988;52.614;13.500;2023-07-31T11:10:44;18.30;99.90
13835;DHT22;6988;52.614;13.500;2023-07-31T11:15:38;18.90;99.90
13835;DHT22;6988;52.614;13.500;2023-07-31T11:20:30;19.50;99.90
13835;DHT22;6988;52.614;13.500;2023-07-31T11:25:23;19.60;99.90
13835;DHT22;6988;52.614;13.500;2023-07-31T11:30:14;19.60;99.90
13835;DHT22;6988;52.614;13.500;2023-07-31T11:35:12;19.90;99.90
13835;DHT22;6988;52.614;13.500;2023-07-31T11:40:04;20.10;99.90
13835;DHT22;6988;52.614;13.500;2023-07-31T11:44:57;20.00;99.90
13835;DHT22;6988;52.614;13.500;2023-07-31T11:49:49;19.90;99.90
13835;DHT22;6988;52.614;13.500;2023-07-31T11:54:42;20.00;99.90
13835;DHT22;6988;52.614;13.500;2023-07-31T11:59:34;19.80;99.90
13835;DHT22;6988;52.614;13.500;2023-07-31T12:04:27;19.70;99.90
13835;DHT22;6988;52.614;13.500;2023-07-31T12:09:18;19.60;99.90
13835;DHT22;6988;52.614;13.500;2023-07-31T12:14:20;19.60;99.90
13835;DHT22;6988;52.614;13.500;2023-07-31T12:19:12;19.60;99.90
13835;DHT22;6988;52.614;13.500;2023-07-31T12:24:04;19.50;99.90
13835;DHT22;6988;52.614;13.500;2023-07-31T12:28:56;19.50;99.90
13835;DHT22;6988;52.614;13.500;2023-07-31T12:33:51;19.30;99.90
13835;DHT22;6988;52.614;13.500;2023-07-31T12:38:43;19.20;99.90
13835;DHT22;6988;52.614;13.500;2023-07-31T12:43:36;19.20;99.90
13835;DHT22;6988;52.614;13.500;2023-07-31T12:48:28;19.20;99.90
13835;DHT22;6988;52.614;13.500;2023-07-31T12:53:22;19.20;99.90
13835;DHT22;6988;52.614;13.500;2023-07-31T12:58:13;19.20;99.90
13835;DHT22;6988;52.614;13.500;2023-07-31T13:03:05;19.30;99.90
13835;DHT22;6988;52.614;13.500;2023-07-31T13:07:57;19.40;99.90
13835;DHT22;6988;52.614;13.500;2023-07-31T13:12:50;19.50;99.90
13835;DHT22;6988;52.614;13.500;2023-07-31T13:17:42;19.30;99.90
13835;DHT22;6988;52.614;13.500;2023-07-31T13:22:34;19.30;99.90
13835;DHT22;6988;52.614;13.500;2023-07-31T13:27:25;19.10;99.90
13835;DHT22;6988;52.614;13.500;2023-07-31T13:32:19;19.10;99.90
13835;DHT22;6988;52.614;13.500;2023-07-31T13:37:12;19.00;99.90
13835;DHT22;6988;52.614;13.500;2023-07-31T13:42:05;19.10;99.90
13835;DHT22;6988;52.614;13.500;2023-07-31T13:46:58;19.40;99.90
13835;DHT22;6988;52.614;13.500;2023-07-31T13:51:52;19.50;99.90
13835;DHT22;6988;52.614;13.500;2023-07-31T13:56:43;19.80;99.90
13835;DHT22;6988;52.614;13.500;2023-07-31T14:01:35;19.90;99.90
13835;DHT22;6988;52.614;13.500;2023-07-31T14:06:27;20.20;99.90
13835;DHT22;6988;52.614;13.500;2023-07-31T14:11:20;20.40;99.90
13835;DHT22;6988;52.614;13.500;2023-07-31T14:16:12;20.30;99.90
13835;DHT22;6988;52.614;13.500;2023-07-31T14:21:04;20.40;99.90
13835;DHT22;6988;52.614;13.500;2023-07-31T14:25:56;20.40;99.90
13835;DHT22;6988;52.614;13.500;2023-07-31T14:30:49;20.30;99.90
13835;DHT22;6988;52.614;13.500;2023-07-31T14:35:41;20.30;99.90
13835;DHT22;6988;52.614;13.500;2023-07-31T14:40:33;20.30;99.90
13835;DHT22;6988;52.614;13.500;2023-07-31T14:45:25;20.30;99.90
13835;DHT22;6988;52.614;13.500;2023-07-31T14:50:20;20.30;99.90
13835;DHT22;6988;52.614;13.500;2023-07-31T14:55:11;20.30;99.90
13835;DHT22;6988;52.614;13.500;2023-07-31T15:00:04;20.30;99.90
13835;DHT22;6988;52.614;13.500;2023-07-31T15:04:58;20.30;99.90
13835;DHT22;6988;52.614;13.500;2023-07-31T15:09:51;20.20;99.90
13835;DHT22;6988;52.614;13.500;2023-07-31T15:14:42;20.20;99.90
13835;DHT22;6988;52.614;13.500;2023-07-31T15:19:34;20.20;99.90
13835;DHT22;6988;52.614;13.500;2023-07-31T15:24:27;20.40;99.90
13835;DHT22;6988;52.614;13.500;2023-07-31T15:29:20;20.40;99.90
13835;DHT22;6988;52.614;13.500;2023-07-31T15:34:13;20.40;99.90
13835;DHT22;6988;52.614;13.500;2023-07-31T15:39:05;20.50;99.90
13835;DHT22;6988;52.614;13.500;2023-07-31T15:44:01;20.60;99.90
13835;DHT22;6988;52.614;13.500;2023-07-31T15:48:54;20.70;99.90
13835;DHT22;6988;52.614;13.500;2023-07-31T15:53:46;20.50;99.90
13835;DHT22;6988;52.614;13.500;2023-07-31T15:58:38;20.50;99.90
13835;DHT22;6988;52.614;13.500;2023-07-31T16:03:29;20.30;99.90
13835;DHT22;6988;52.614;13.500;2023-07-31T16:08:22;20.40;99.90
13835;DHT22;6988;52.614;13.500;2023-07-31T16:13:14;20.20;99.90
13835;DHT22;6988;52.614;13.500;2023-07-31T16:18:06;20.20;99.90
13835;DHT22;6988;52.614;13.500;2023-07-31T16:22:58;20.20;99.90
13835;DHT22;6988;52.614;13.500;2023-07-31T16:27:51;20.10;99.90
13835;DHT22;6988;52.614;13.500;2023-07-31T16:32:43;20.20;99.90
13835;DHT22;6988;52.614;13.500;2023-07-31T16:37:37;20.00;99.90
13835;DHT22;6988;52.614;13.500;2023-07-31T16:42:30;20.00;99.90
13835;DHT22;6988;52.614;13.500;2023-07-31T16:47:24;20.00;99.90
13835;DHT22;6988;52.614;13.500;2023-07-31T16:52:15;19.90;99.90
13835;DHT22;6988;52.614;13.500;2023-07-31T16:57:07;20.10;99.90
13835;DHT22;6988;52.614;13.500;2023-07-31T17:01:59;20.20;99.90
13835;DHT22;6988;52.614;13.500;2023-07-31T17:06:53;20.30;99.90
13835;DHT22;6988;52.614;13.500;2023-07-31T17:11:44;20.30;99.90
13835;DHT22;6988;52.614;13.500;2023-07-31T17:16:36;20.30;99.90
13835;DHT22;6988;52.614;13.500;2023-07-31T17:21:28;20.30;99.90
13835;DHT22;6988;52.614;13.500;2023-07-31T17:26:21;20.40;99.90
13835;DHT22;6988;52.614;13.500;2023-07-31T17:31:13;20.50;99.90
13835;DHT22;6988;52.614;13.500;2023-07-31T17:36:05;20.40;99.90
13835;DHT22;6988;52.614;13.500;2023-07-31T17:40:57;20.00;99.90
13835;DHT22;6988;52.614;13.500;2023-07-31T17:45:50;19.40;99.90
13835;DHT22;6988;52.614;13.500;2023-07-31T17:50:42;19.00;99.90
13835;DHT22;6988;52.614;13.500;2023-07-31T17:55:34;18.90;99.90
13835;DHT22;6988;52.614;13.500;2023-07-31T18:00:26;18.60;99.90
13835;DHT22;6988;52.614;13.500;2023-07-31T18:05:19;18.50;99.90
13835;DHT22;6988;52.614;13.500;2023-07-31T18:10:11;18.40;99.90
13835;DHT22;6988;52.614;13.500;2023-07-31T18:15:03;18.30;99.90
13835;DHT22;6988;52.614;13.500;2023-07-31T18:19:55;18.40;99.90
13835;DHT22;6988;52.614;13.500;2023-07-31T18:24:49;18.30;99.90
13835;DHT22;6988;52.614;13.500;2023-07-31T18:29:41;18.30;99.90
13835;DHT22;6988;52.614;13.500;2023-07-31T18:34:32;18.20;99.90
13835;DHT22;6988;52.614;13.500;2023-07-31T18:39:24;18.20;99.90
13835;DHT22;6988;52.614;13.500;2023-07-31T18:44:17;18.30;99.90
13835;DHT22;6988;52.614;13.500;2023-07-31T18:49:09;18.30;99.90
13835;DHT22;6988;52.614;13.500;2023-07-31T18:54:01;18.30;99.90
13835;DHT22;6988;52.614;13.500;2023-07-31T18:58:53;18.20;99.90
13835;DHT22;6988;52.614;13.500;2023-07-31T19:03:46;18.20;99.90
13835;DHT22;6988;52.614;13.500;2023-07-31T19:08:38;18.10;99.90
13835;DHT22;6988;52.614;13.500;2023-07-31T19:13:29;18.20;99.90
13835;DHT22;6988;52.614;13.500;2023-07-31T19:18:21;18.30;99.90
13835;DHT22;6988;52.614;13.500;2023-07-31T19:23:14;18.20;99.90
13835;DHT22;6988;52.614;13.500;2023-07-31T19:28:06;18.30;99.90
13835;DHT22;6988;52.614;13.500;2023-07-31T19:32:58;18.20;99.90
13835;DHT22;6988;52.614;13.500;2023-07-31T19:37:50;18.20;99.90
13835;DHT22;6988;52.614;13.500;2023-07-31T19:42:43;18.20;99.90
13835;DHT22;6988;52.614;13.500;2023-07-31T19:47:34;18.30;99.90
13835;DHT22;6988;52.614;13.500;2023-07-31T19:52:27;18.20;99.90
13835;DHT22;6988;52.614;13.500;2023-07-31T19:57:18;18.40;99.90
13835;DHT22;6988;52.614;13.500;2023-07-31T20:02:12;18.30;99.90
13835;DHT22;6988;52.614;13.500;2023-07-31T20:07:04;18.40;99.90
13835;DHT22;6988;52.614;13.500;2023-07-31T20:11:56;18.40;99.90
13835;DHT22;6988;52.614;13.500;2023-07-31T20:16:49;18.40;99.90
13835;DHT22;6988;52.614;13.500;2023-07-31T20:21:42;18.30;99.90
13835;DHT22;6988;52.614;13.500;2023-07-31T20:26:34;18.30;99.90
13835;DHT22;6988;52.614;13.500;2023-07-31T20:31:26;18.50;99.90
13835;DHT22;6988;52.614;13.500;2023-07-31T20:36:17;18.40;99.90
13835;DHT22;6988;52.614;13.500;2023-07-31T20:41:11;18.40;99.90
13835;DHT22;6988;52.614;13.500;2023-07-31T20:46:03;18.60;99.90
13835;DHT22;6988;52.614;13.500;2023-07-31T20:50:59;18.40;99.90
13835;DHT22;6988;52.614;13.500;2023-07-31T20:55:52;18.50;99.90
13835;DHT22;6988;52.614;13.500;2023-07-31T21:00:45;18.30;99.90
13835;DHT22;6988;52.614;13.500;2023-07-31T21:05:36;18.40;99.90
13835;DHT22;6988;52.614;13.500;2023-07-31T21:10:28;18.30;99.90
13835;DHT22;6988;52.614;13.500;2023-07-31T21:15:20;18.20;99.90
13835;DHT22;6988;52.614;13.500;2023-07-31T21:20:14;18.00;99.90
13835;DHT22;6988;52.614;13.500;2023-07-31T21:25:06;18.20;99.90
13835;DHT22;6988;52.614;13.500;2023-07-31T21:29:59;18.10;99.90
13835;DHT22;6988;52.614;13.500;2023-07-31T21:34:50;18.20;99.90
13835;DHT22;6988;52.614;13.500;2023-07-31T21:39:43;18.00;99.90
13835;DHT22;6988;52.614;13.500;2023-07-31T21:44:35;18.10;99.90
13835;DHT22;6988;52.614;13.500;2023-07-31T22:04:01;18.00;99.90
13835;DHT22;6988;52.614;13.500;2023-07-31T22:08:53;18.00;99.90
13835;DHT22;6988;52.614;13.500;2023-07-31T22:13:45;18.00;99.90
13835;DHT22;6988;52.614;13.500;2023-07-31T22:18:37;18.00;99.90
13835;DHT22;6988;52.614;13.500;2023-07-31T22:23:30;17.90;99.90
13835;DHT22;6988;52.614;13.500;2023-07-31T22:28:22;17.90;99.90
13835;DHT22;6988;52.614;13.500;2023-07-31T22:33:14;17.90;99.90
13835;DHT22;6988;52.614;13.500;2023-07-31T22:38:05;17.90;99.90
13835;DHT22;6988;52.614;13.500;2023-07-31T22:42:59;17.90;99.90
13835;DHT22;6988;52.614;13.500;2023-07-31T22:47:51;17.90;99.90
13835;DHT22;6988;52.614;13.500;2023-07-31T22:52:43;17.90;99.90
13835;DHT22;6988;52.614;13.500;2023-07-31T22:57:34;17.90;99.90
13835;DHT22;6988;52.614;13.500;2023-07-31T23:02:27;17.90;99.90
13835;DHT22;6988;52.614;13.500;2023-07-31T23:07:19;17.90;99.90
13835;DHT22;6988;52.614;13.500;2023-07-31T23:12:11;17.90;99.90
13835;DHT22;6988;52.614;13.500;2023-07-31T23:17:03;18.00;99.90
13835;DHT22;6988;52.614;13.500;2023-07-31T23:21:57;18.00;99.90
13835;DHT22;6988;52.614;13.500;2023-07-31T23:26:49;18.00;99.90
13835;DHT22;6988;52.614;13.500;2023-07-31T23:31:42;18.10;99.90
13835;DHT22;6988;52.614;13.500;2023-07-31T23:36:35;18.10;99.90
13835;DHT22;6988;52.614;13.500;2023-07-31T23:41:29;18.10;99.90
13835;DHT22;6988;52.614;13.500;2023-07-31T23:46:21;18.10;99.90
13835;DHT22;6988;52.614;13.500;2023-07-31T23:51:14;18.10;99.90
13835;DHT22;6988;52.614;13.500;2023-07-31T23:56:06;18.10;99.90
